Hovedside
METAR-TAF:

METAR-TAF

Lufthavner :

Nanaimo, Britisk Columbia, Canada

breddegrad: 49-03N, lengdegrad: 123-52W, høyde over havet: 28 m

Gjeldene værobservasjon

Denne rapporten ble laget for 49 minutter siden, klokken 22:00 UTC
Vind 6 kt fra Nord, skiftende mellom Nordvest og Øst-nordøst
Temperatur 24°C
Luftfuktighet 44%
Trykk 1023 hPa
Sikt: 40.2 km
Skyfri himmel

METAR: CYCD 172200Z 35006KT 320V070 25SM SKC 24/11 A3020 RMK SLP227 DENSITY ALT 900FT

Tid: 15:49 (22:49 UTC)

Varsel

Denne rapporten ble laget for 5 timer og 11 minutter siden, klokken 17:38 UTC
Varsel gyldig fra 17. klokken 18 UTC til 18. klokken 04 UTC
Vind 5 kt fra Nordøst
Sikt: 10 km
Få skyer i en høyde av 1500 ft

TAF: CYCD 171738Z 1718/1804 04005KT P6SM FEW015 RMK NXT FCST BY 180000Z

Værobservasjoner og værvarsel for over 4000 flyplasser (METAR- og TAF-rapporter).

Tilgjengelige stasjoner er representert av de røde og gule prikkene på kartet.

Hold musepekeren over prikken for å se navnet på stasjonen.

Klikk så for å se værobservasjoner og -varsler.

For å forandre kartet kan du klikke på den grønne knappen med svart kryss for å zoome inn, på den grønne knappen med strek for å zoome ut, eller på de grønne pilene for å se tilstøtende kart.


METAR-TAF: